sensor_id;sensor_type;location;lat;lon;timestamp;pressure;altitude;pressure_sealevel;temperature;humidity
23303;BME280;11820;48.738;9.092;2023-09-18T00:00:53;95731.88;;;23.48;100.00
23303;BME280;11820;48.738;9.092;2023-09-18T00:03:19;95739.16;;;23.37;100.00
23303;BME280;11820;48.738;9.092;2023-09-18T00:05:46;95738.31;;;23.23;100.00
23303;BME280;11820;48.738;9.092;2023-09-18T00:08:13;95733.94;;;23.14;100.00
23303;BME280;11820;48.738;9.092;2023-09-18T00:10:38;95728.59;;;23.19;100.00
23303;BME280;11820;48.738;9.092;2023-09-18T00:13:03;95728.66;;;23.14;100.00
23303;BME280;11820;48.738;9.092;2023-09-18T00:15:29;95718.63;;;22.93;100.00
23303;BME280;11820;48.738;9.092;2023-09-18T00:17:55;95718.78;;;23.01;100.00
23303;BME280;11820;48.738;9.092;2023-09-18T00:20:20;95716.78;;;22.93;100.00
23303;BME280;11820;48.738;9.092;2023-09-18T00:22:47;95706.44;;;22.97;100.00
23303;BME280;11820;48.738;9.092;2023-09-18T00:25:13;95702.75;;;22.98;100.00
23303;BME280;11820;48.738;9.092;2023-09-18T00:27:40;95703.59;;;22.93;100.00
23303;BME280;11820;48.738;9.092;2023-09-18T00:30:06;95705.38;;;22.98;100.00
23303;BME280;11820;48.738;9.092;2023-09-18T00:32:32;95703.66;;;23.07;100.00
23303;BME280;11820;48.738;9.092;2023-09-18T00:34:57;95696.06;;;23.05;100.00
23303;BME280;11820;48.738;9.092;2023-09-18T00:37:22;95688.97;;;23.01;100.00
23303;BME280;11820;48.738;9.092;2023-09-18T00:39:49;95697.41;;;23.21;100.00
23303;BME280;11820;48.738;9.092;2023-09-18T00:42:14;95694.91;;;23.29;100.00
23303;BME280;11820;48.738;9.092;2023-09-18T00:44:43;95692.84;;;23.26;100.00
23303;BME280;11820;48.738;9.092;2023-09-18T00:47:08;95691.66;;;23.19;100.00
23303;BME280;11820;48.738;9.092;2023-09-18T00:49:35;95692.09;;;23.26;100.00
23303;BME280;11820;48.738;9.092;2023-09-18T00:52:02;95683.09;;;23.27;100.00
23303;BME280;11820;48.738;9.092;2023-09-18T00:54:28;95683.28;;;23.30;100.00
23303;BME280;11820;48.738;9.092;2023-09-18T00:56:53;95681.00;;;23.42;100.00
23303;BME280;11820;48.738;9.092;2023-09-18T00:59:20;95677.88;;;23.40;100.00
23303;BME280;11820;48.738;9.092;2023-09-18T01:01:48;95684.81;;;23.36;100.00
23303;BME280;11820;48.738;9.092;2023-09-18T01:04:15;95676.88;;;23.36;100.00
23303;BME280;11820;48.738;9.092;2023-09-18T01:06:41;95674.94;;;23.42;100.00
23303;BME280;11820;48.738;9.092;2023-09-18T01:09:07;95664.09;;;23.43;100.00
23303;BME280;11820;48.738;9.092;2023-09-18T01:11:54;95673.72;;;23.53;100.00
23303;BME280;11820;48.738;9.092;2023-09-18T01:14:49;95675.16;;;23.45;100.00
23303;BME280;11820;48.738;9.092;2023-09-18T01:17:16;95668.88;;;23.41;100.00
23303;BME280;11820;48.738;9.092;2023-09-18T01:19:45;95685.41;;;23.47;100.00
23303;BME280;11820;48.738;9.092;2023-09-18T01:22:13;95672.34;;;23.55;100.00
23303;BME280;11820;48.738;9.092;2023-09-18T01:24:39;95683.16;;;23.40;100.00
23303;BME280;11820;48.738;9.092;2023-09-18T01:27:08;95676.13;;;23.49;100.00
23303;BME280;11820;48.738;9.092;2023-09-18T01:29:34;95669.78;;;23.50;100.00
23303;BME280;11820;48.738;9.092;2023-09-18T01:31:59;95681.16;;;23.51;100.00
23303;BME280;11820;48.738;9.092;2023-09-18T01:34:28;95680.66;;;23.30;100.00
23303;BME280;11820;48.738;9.092;2023-09-18T01:36:57;95683.00;;;23.50;100.00
23303;BME280;11820;48.738;9.092;2023-09-18T01:39:23;95703.53;;;23.53;100.00
23303;BME280;11820;48.738;9.092;2023-09-18T01:41:49;95719.13;;;23.36;100.00
23303;BME280;11820;48.738;9.092;2023-09-18T01:44:15;95777.38;;;23.21;100.00
23303;BME280;11820;48.738;9.092;2023-09-18T01:46:41;95771.03;;;23.22;100.00
23303;BME280;11820;48.738;9.092;2023-09-18T01:49:07;95760.63;;;23.08;100.00
23303;BME280;11820;48.738;9.092;2023-09-18T01:51:32;95760.91;;;23.11;100.00
23303;BME280;11820;48.738;9.092;2023-09-18T01:53:57;95736.38;;;23.11;100.00
23303;BME280;11820;48.738;9.092;2023-09-18T01:56:23;95736.25;;;22.97;100.00
23303;BME280;11820;48.738;9.092;2023-09-18T01:58:49;95711.06;;;23.05;100.00
23303;BME280;11820;48.738;9.092;2023-09-18T02:01:14;95685.41;;;22.73;100.00
23303;BME280;11820;48.738;9.092;2023-09-18T02:03:40;95662.28;;;22.84;100.00
23303;BME280;11820;48.738;9.092;2023-09-18T02:06:06;95616.69;;;23.02;100.00
23303;BME280;11820;48.738;9.092;2023-09-18T02:08:31;95585.38;;;22.77;100.00
23303;BME280;11820;48.738;9.092;2023-09-18T02:10:56;95586.97;;;22.78;100.00
23303;BME280;11820;48.738;9.092;2023-09-18T02:13:22;95604.06;;;22.80;100.00
23303;BME280;11820;48.738;9.092;2023-09-18T02:15:47;95606.47;;;22.95;100.00
23303;BME280;11820;48.738;9.092;2023-09-18T02:18:12;95609.91;;;22.96;100.00
23303;BME280;11820;48.738;9.092;2023-09-18T02:20:40;95615.28;;;22.91;100.00
23303;BME280;11820;48.738;9.092;2023-09-18T02:23:06;95630.44;;;22.80;100.00
23303;BME280;11820;48.738;9.092;2023-09-18T02:25:31;95632.66;;;22.73;100.00
23303;BME280;11820;48.738;9.092;2023-09-18T02:27:56;95632.38;;;22.75;100.00
23303;BME280;11820;48.738;9.092;2023-09-18T02:30:22;95635.16;;;22.83;100.00
23303;BME280;11820;48.738;9.092;2023-09-18T02:32:47;95638.84;;;23.01;100.00
23303;BME280;11820;48.738;9.092;2023-09-18T02:35:12;95642.72;;;22.90;100.00
23303;BME280;11820;48.738;9.092;2023-09-18T02:37:38;95643.41;;;22.95;100.00
23303;BME280;11820;48.738;9.092;2023-09-18T02:40:04;95652.13;;;22.96;100.00
23303;BME280;11820;48.738;9.092;2023-09-18T02:42:30;95660.69;;;22.88;100.00
23303;BME280;11820;48.738;9.092;2023-09-18T02:44:55;95677.13;;;22.80;100.00
23303;BME280;11820;48.738;9.092;2023-09-18T02:47:20;95675.31;;;22.57;100.00
23303;BME280;11820;48.738;9.092;2023-09-18T02:49:46;95676.88;;;22.34;100.00
23303;BME280;11820;48.738;9.092;2023-09-18T02:52:11;95665.97;;;22.46;100.00
23303;BME280;11820;48.738;9.092;2023-09-18T02:54:36;95660.91;;;22.49;100.00
23303;BME280;11820;48.738;9.092;2023-09-18T02:57:02;95647.09;;;22.34;100.00
23303;BME280;11820;48.738;9.092;2023-09-18T02:59:27;95645.50;;;22.33;100.00
23303;BME280;11820;48.738;9.092;2023-09-18T03:01:52;95653.47;;;22.28;100.00
23303;BME280;11820;48.738;9.092;2023-09-18T03:04:18;95642.38;;;22.31;100.00
23303;BME280;11820;48.738;9.092;2023-09-18T03:06:43;95640.38;;;22.23;100.00
23303;BME280;11820;48.738;9.092;2023-09-18T03:09:09;95628.13;;;22.32;100.00
23303;BME280;11820;48.738;9.092;2023-09-18T03:11:34;95627.25;;;22.18;100.00
23303;BME280;11820;48.738;9.092;2023-09-18T03:14:00;95624.50;;;22.28;100.00
23303;BME280;11820;48.738;9.092;2023-09-18T03:16:25;95612.69;;;22.49;100.00
23303;BME280;11820;48.738;9.092;2023-09-18T03:18:50;95621.00;;;22.37;100.00
23303;BME280;11820;48.738;9.092;2023-09-18T03:21:15;95615.38;;;22.44;100.00
23303;BME280;11820;48.738;9.092;2023-09-18T03:23:41;95632.03;;;22.39;100.00
23303;BME280;11820;48.738;9.092;2023-09-18T03:26:06;95638.69;;;22.08;100.00
23303;BME280;11820;48.738;9.092;2023-09-18T03:28:31;95645.63;;;22.23;100.00
23303;BME280;11820;48.738;9.092;2023-09-18T03:31:00;95656.06;;;22.09;100.00
23303;BME280;11820;48.738;9.092;2023-09-18T03:33:25;95651.81;;;22.37;100.00
23303;BME280;11820;48.738;9.092;2023-09-18T03:35:51;95650.00;;;22.32;100.00
23303;BME280;11820;48.738;9.092;2023-09-18T03:38:19;95665.09;;;22.27;100.00
23303;BME280;11820;48.738;9.092;2023-09-18T03:40:46;95686.16;;;22.27;100.00
23303;BME280;11820;48.738;9.092;2023-09-18T03:43:11;95706.19;;;22.28;100.00
23303;BME280;11820;48.738;9.092;2023-09-18T03:45:39;95718.66;;;22.22;100.00
23303;BME280;11820;48.738;9.092;2023-09-18T03:48:08;95733.50;;;22.37;100.00
23303;BME280;11820;48.738;9.092;2023-09-18T03:50:33;95734.50;;;22.46;100.00
23303;BME280;11820;48.738;9.092;2023-09-18T03:52:58;95750.31;;;22.46;100.00
23303;BME280;11820;48.738;9.092;2023-09-18T03:55:24;95763.16;;;22.24;100.00
23303;BME280;11820;48.738;9.092;2023-09-18T03:57:51;95767.06;;;21.98;100.00
23303;BME280;11820;48.738;9.092;2023-09-18T04:00:17;95777.75;;;22.11;100.00
23303;BME280;11820;48.738;9.092;2023-09-18T04:02:42;95767.41;;;21.86;100.00
23303;BME280;11820;48.738;9.092;2023-09-18T04:05:07;95750.66;;;22.06;100.00
23303;BME280;11820;48.738;9.092;2023-09-18T04:07:34;95751.22;;;22.03;100.00
23303;BME280;11820;48.738;9.092;2023-09-18T04:09:59;95734.81;;;22.11;100.00
23303;BME280;11820;48.738;9.092;2023-09-18T04:12:25;95729.38;;;22.26;100.00
23303;BME280;11820;48.738;9.092;2023-09-18T04:14:50;95717.84;;;22.22;100.00
23303;BME280;11820;48.738;9.092;2023-09-18T04:17:16;95704.41;;;22.23;100.00
23303;BME280;11820;48.738;9.092;2023-09-18T04:19:41;95699.53;;;22.07;100.00
23303;BME280;11820;48.738;9.092;2023-09-18T04:22:08;95689.16;;;21.92;100.00
23303;BME280;11820;48.738;9.092;2023-09-18T04:24:33;95682.41;;;22.09;100.00
23303;BME280;11820;48.738;9.092;2023-09-18T04:26:58;95674.50;;;22.09;100.00
23303;BME280;11820;48.738;9.092;2023-09-18T04:29:24;95662.13;;;22.10;100.00
23303;BME280;11820;48.738;9.092;2023-09-18T04:31:49;95643.91;;;22.13;100.00
23303;BME280;11820;48.738;9.092;2023-09-18T04:34:14;95620.41;;;21.93;100.00
23303;BME280;11820;48.738;9.092;2023-09-18T04:36:40;95618.41;;;22.09;100.00
23303;BME280;11820;48.738;9.092;2023-09-18T04:39:05;95626.72;;;21.97;100.00
23303;BME280;11820;48.738;9.092;2023-09-18T04:41:32;95622.13;;;22.08;100.00
23303;BME280;11820;48.738;9.092;2023-09-18T04:43:57;95616.84;;;22.08;100.00
23303;BME280;11820;48.738;9.092;2023-09-18T04:46:23;95617.94;;;22.02;100.00
23303;BME280;11820;48.738;9.092;2023-09-18T04:48:49;95620.00;;;22.05;100.00
23303;BME280;11820;48.738;9.092;2023-09-18T04:51:15;95618.25;;;22.00;100.00
23303;BME280;11820;48.738;9.092;2023-09-18T04:53:40;95632.09;;;22.11;100.00
23303;BME280;11820;48.738;9.092;2023-09-18T04:56:06;95644.41;;;22.15;100.00
23303;BME280;11820;48.738;9.092;2023-09-18T04:58:31;95652.81;;;22.17;100.00
23303;BME280;11820;48.738;9.092;2023-09-18T05:00:58;95646.53;;;21.90;100.00
23303;BME280;11820;48.738;9.092;2023-09-18T05:03:24;95644.97;;;21.89;100.00
23303;BME280;11820;48.738;9.092;2023-09-18T05:05:49;95640.59;;;22.03;100.00
23303;BME280;11820;48.738;9.092;2023-09-18T05:08:15;95638.63;;;22.13;100.00
23303;BME280;11820;48.738;9.092;2023-09-18T05:10:41;95634.25;;;22.04;100.00
23303;BME280;11820;48.738;9.092;2023-09-18T05:13:06;95645.84;;;22.03;100.00
23303;BME280;11820;48.738;9.092;2023-09-18T05:15:32;95647.91;;;22.06;100.00
23303;BME280;11820;48.738;9.092;2023-09-18T05:17:59;95666.53;;;21.91;100.00
23303;BME280;11820;48.738;9.092;2023-09-18T05:20:25;95677.56;;;21.93;100.00
23303;BME280;11820;48.738;9.092;2023-09-18T05:22:52;95687.09;;;21.89;100.00
23303;BME280;11820;48.738;9.092;2023-09-18T05:25:21;95684.41;;;21.94;100.00
23303;BME280;11820;48.738;9.092;2023-09-18T05:27:48;95663.44;;;21.84;100.00
23303;BME280;11820;48.738;9.092;2023-09-18T05:30:15;95656.25;;;21.66;100.00
23303;BME280;11820;48.738;9.092;2023-09-18T05:32:42;95659.13;;;21.69;100.00
23303;BME280;11820;48.738;9.092;2023-09-18T05:35:08;95668.09;;;21.63;100.00
23303;BME280;11820;48.738;9.092;2023-09-18T05:37:36;95669.09;;;21.72;100.00
23303;BME280;11820;48.738;9.092;2023-09-18T05:40:05;95670.75;;;21.58;100.00
23303;BME280;11820;48.738;9.092;2023-09-18T05:42:34;95683.63;;;21.60;100.00
23303;BME280;11820;48.738;9.092;2023-09-18T05:44:59;95687.28;;;21.69;100.00
23303;BME280;11820;48.738;9.092;2023-09-18T05:47:25;95690.06;;;21.44;100.00
23303;BME280;11820;48.738;9.092;2023-09-18T05:49:50;95678.31;;;21.70;100.00
23303;BME280;11820;48.738;9.092;2023-09-18T05:52:16;95671.53;;;21.64;100.00
23303;BME280;11820;48.738;9.092;2023-09-18T05:54:41;95671.47;;;21.69;100.00
23303;BME280;11820;48.738;9.092;2023-09-18T05:57:06;95663.97;;;21.81;100.00
23303;BME280;11820;48.738;9.092;2023-09-18T05:59:32;95664.78;;;21.81;100.00
23303;BME280;11820;48.738;9.092;2023-09-18T06:01:57;95659.44;;;21.63;100.00
23303;BME280;11820;48.738;9.092;2023-09-18T06:04:22;95663.06;;;21.67;100.00
23303;BME280;11820;48.738;9.092;2023-09-18T06:06:49;95647.22;;;21.72;100.00
23303;BME280;11820;48.738;9.092;2023-09-18T06:09:14;95651.34;;;21.49;100.00
23303;BME280;11820;48.738;9.092;2023-09-18T06:11:39;95650.59;;;21.44;100.00
23303;BME280;11820;48.738;9.092;2023-09-18T06:14:04;95659.16;;;21.26;100.00
23303;BME280;11820;48.738;9.092;2023-09-18T06:16:30;95649.13;;;21.33;100.00
23303;BME280;11820;48.738;9.092;2023-09-18T06:18:56;95664.63;;;21.35;100.00
23303;BME280;11820;48.738;9.092;2023-09-18T06:21:21;95661.31;;;21.19;100.00
23303;BME280;11820;48.738;9.092;2023-09-18T06:23:47;95671.91;;;21.09;100.00
23303;BME280;11820;48.738;9.092;2023-09-18T06:26:12;95671.44;;;20.97;100.00
23303;BME280;11820;48.738;9.092;2023-09-18T06:28:38;95676.38;;;21.09;100.00
23303;BME280;11820;48.738;9.092;2023-09-18T06:31:04;95673.44;;;21.15;100.00
23303;BME280;11820;48.738;9.092;2023-09-18T06:33:29;95670.88;;;21.05;100.00
23303;BME280;11820;48.738;9.092;2023-09-18T06:35:55;95654.50;;;21.18;100.00
23303;BME280;11820;48.738;9.092;2023-09-18T06:38:20;95666.41;;;21.06;100.00
23303;BME280;11820;48.738;9.092;2023-09-18T06:40:46;95673.16;;;21.17;100.00
23303;BME280;11820;48.738;9.092;2023-09-18T06:43:12;95688.59;;;21.33;100.00
23303;BME280;11820;48.738;9.092;2023-09-18T06:45:37;95688.84;;;20.93;100.00
23303;BME280;11820;48.738;9.092;2023-09-18T06:48:03;95679.56;;;21.06;100.00
23303;BME280;11820;48.738;9.092;2023-09-18T06:50:29;95682.25;;;20.96;100.00
23303;BME280;11820;48.738;9.092;2023-09-18T06:52:54;95690.34;;;21.04;100.00
23303;BME280;11820;48.738;9.092;2023-09-18T06:55:19;95698.25;;;20.99;100.00
23303;BME280;11820;48.738;9.092;2023-09-18T06:57:45;95698.28;;;20.94;100.00
23303;BME280;11820;48.738;9.092;2023-09-18T07:00:11;95696.34;;;21.10;100.00
23303;BME280;11820;48.738;9.092;2023-09-18T07:02:39;95693.91;;;21.23;100.00
23303;BME280;11820;48.738;9.092;2023-09-18T07:05:05;95687.69;;;21.09;100.00
23303;BME280;11820;48.738;9.092;2023-09-18T07:07:30;95708.41;;;21.16;100.00
23303;BME280;11820;48.738;9.092;2023-09-18T07:09:57;95704.94;;;21.25;100.00
23303;BME280;11820;48.738;9.092;2023-09-18T07:12:22;95694.91;;;21.27;100.00
23303;BME280;11820;48.738;9.092;2023-09-18T07:14:49;95694.53;;;21.05;100.00
23303;BME280;11820;48.738;9.092;2023-09-18T07:17:14;95683.84;;;21.30;100.00
23303;BME280;11820;48.738;9.092;2023-09-18T07:19:40;95684.94;;;21.24;100.00
23303;BME280;11820;48.738;9.092;2023-09-18T07:22:05;95680.16;;;21.31;100.00
23303;BME280;11820;48.738;9.092;2023-09-18T07:24:31;95700.19;;;21.27;100.00
23303;BME280;11820;48.738;9.092;2023-09-18T07:26:56;95696.75;;;21.32;100.00
23303;BME280;11820;48.738;9.092;2023-09-18T07:29:23;95694.91;;;21.32;100.00
23303;BME280;11820;48.738;9.092;2023-09-18T07:31:51;95700.13;;;21.37;100.00
23303;BME280;11820;48.738;9.092;2023-09-18T07:34:16;95708.25;;;21.40;100.00
23303;BME280;11820;48.738;9.092;2023-09-18T07:36:44;95724.78;;;21.46;100.00
23303;BME280;11820;48.738;9.092;2023-09-18T07:39:10;95724.88;;;21.36;100.00
23303;BME280;11820;48.738;9.092;2023-09-18T07:41:37;95719.66;;;21.26;100.00
23303;BME280;11820;48.738;9.092;2023-09-18T07:44:02;95741.69;;;21.40;100.00
23303;BME280;11820;48.738;9.092;2023-09-18T07:46:28;95751.25;;;21.21;100.00
23303;BME280;11820;48.738;9.092;2023-09-18T07:48:53;95747.06;;;21.20;100.00
23303;BME280;11820;48.738;9.092;2023-09-18T07:51:19;95751.47;;;21.30;100.00
23303;BME280;11820;48.738;9.092;2023-09-18T07:53:44;95751.47;;;21.30;100.00
23303;BME280;11820;48.738;9.092;2023-09-18T07:56:09;95736.47;;;21.30;100.00
23303;BME280;11820;48.738;9.092;2023-09-18T07:58:35;95740.59;;;21.46;100.00
23303;BME280;11820;48.738;9.092;2023-09-18T08:01:03;95737.53;;;21.34;100.00
23303;BME280;11820;48.738;9.092;2023-09-18T08:03:31;95731.13;;;21.45;100.00
23303;BME280;11820;48.738;9.092;2023-09-18T08:05:57;95742.78;;;21.34;100.00
23303;BME280;11820;48.738;9.092;2023-09-18T08:08:23;95755.25;;;21.19;100.00
23303;BME280;11820;48.738;9.092;2023-09-18T08:10:50;95759.44;;;21.15;100.00
23303;BME280;11820;48.738;9.092;2023-09-18T08:13:16;95751.00;;;21.18;100.00
23303;BME280;11820;48.738;9.092;2023-09-18T08:15:42;95759.72;;;21.13;100.00
23303;BME280;11820;48.738;9.092;2023-09-18T08:18:07;95762.94;;;21.00;100.00
23303;BME280;11820;48.738;9.092;2023-09-18T08:20:32;95764.19;;;21.13;100.00
23303;BME280;11820;48.738;9.092;2023-09-18T08:22:58;95796.06;;;21.01;100.00
23303;BME280;11820;48.738;9.092;2023-09-18T08:25:26;95800.28;;;20.97;100.00
23303;BME280;11820;48.738;9.092;2023-09-18T08:27:52;95809.53;;;20.95;100.00
23303;BME280;11820;48.738;9.092;2023-09-18T08:30:18;95814.28;;;20.83;100.00
23303;BME280;11820;48.738;9.092;2023-09-18T08:32:46;95815.59;;;20.70;100.00
23303;BME280;11820;48.738;9.092;2023-09-18T08:35:12;95817.69;;;20.73;100.00
23303;BME280;11820;48.738;9.092;2023-09-18T08:37:40;95821.94;;;20.49;100.00
23303;BME280;11820;48.738;9.092;2023-09-18T08:40:06;95833.00;;;20.56;100.00
23303;BME280;11820;48.738;9.092;2023-09-18T08:42:35;95811.41;;;20.64;100.00
23303;BME280;11820;48.738;9.092;2023-09-18T08:45:01;95823.53;;;20.60;100.00
23303;BME280;11820;48.738;9.092;2023-09-18T08:47:29;95820.91;;;20.50;100.00
23303;BME280;11820;48.738;9.092;2023-09-18T08:49:56;95806.97;;;20.55;100.00
23303;BME280;11820;48.738;9.092;2023-09-18T08:52:23;95795.66;;;20.64;100.00
23303;BME280;11820;48.738;9.092;2023-09-18T08:54:51;95795.97;;;20.48;100.00
23303;BME280;11820;48.738;9.092;2023-09-18T08:57:16;95811.19;;;20.41;100.00
23303;BME280;11820;48.738;9.092;2023-09-18T08:59:42;95818.31;;;20.25;100.00
23303;BME280;11820;48.738;9.092;2023-09-18T09:02:09;95814.38;;;20.23;100.00
23303;BME280;11820;48.738;9.092;2023-09-18T09:04:37;95815.69;;;20.20;100.00
23303;BME280;11820;48.738;9.092;2023-09-18T09:07:03;95826.44;;;20.29;100.00
23303;BME280;11820;48.738;9.092;2023-09-18T09:09:28;95827.25;;;20.14;100.00
23303;BME280;11820;48.738;9.092;2023-09-18T09:11:54;95819.63;;;20.13;100.00
23303;BME280;11820;48.738;9.092;2023-09-18T09:14:20;95821.72;;;20.26;100.00
23303;BME280;11820;48.738;9.092;2023-09-18T09:16:54;95820.69;;;20.27;100.00
23303;BME280;11820;48.738;9.092;2023-09-18T09:19:31;95820.66;;;20.37;100.00
23303;BME280;11820;48.738;9.092;2023-09-18T09:21:58;95823.03;;;20.28;100.00
23303;BME280;11820;48.738;9.092;2023-09-18T09:24:38;95819.88;;;20.36;100.00
23303;BME280;11820;48.738;9.092;2023-09-18T09:27:03;95825.66;;;20.28;100.00
23303;BME280;11820;48.738;9.092;2023-09-18T09:29:29;95830.94;;;20.13;100.00
23303;BME280;11820;48.738;9.092;2023-09-18T09:31:55;95831.72;;;20.19;100.00
23303;BME280;11820;48.738;9.092;2023-09-18T09:34:27;95820.41;;;20.33;100.00
23303;BME280;11820;48.738;9.092;2023-09-18T09:36:55;95811.47;;;20.44;100.00
23303;BME280;11820;48.738;9.092;2023-09-18T09:39:21;95804.66;;;20.33;100.00
23303;BME280;11820;48.738;9.092;2023-09-18T09:41:50;95793.28;;;20.68;100.00
23303;BME280;11820;48.738;9.092;2023-09-18T09:44:16;95778.84;;;20.50;100.00
23303;BME280;11820;48.738;9.092;2023-09-18T09:46:48;95776.53;;;20.39;100.00
23303;BME280;11820;48.738;9.092;2023-09-18T09:49:14;95771.53;;;20.42;100.00
23303;BME280;11820;48.738;9.092;2023-09-18T09:51:42;95774.19;;;20.32;100.00
23303;BME280;11820;48.738;9.092;2023-09-18T09:54:09;95788.34;;;20.41;100.00
23303;BME280;11820;48.738;9.092;2023-09-18T09:56:48;95795.66;;;20.64;100.00
23303;BME280;11820;48.738;9.092;2023-09-18T09:59:16;95796.84;;;21.07;100.00
23303;BME280;11820;48.738;9.092;2023-09-18T10:01:46;95794.97;;;21.17;100.00
23303;BME280;11820;48.738;9.092;2023-09-18T10:04:16;95796.81;;;21.12;100.00
23303;BME280;11820;48.738;9.092;2023-09-18T10:06:55;95803.66;;;21.13;100.00
23303;BME280;11820;48.738;9.092;2023-09-18T10:09:22;95804.94;;;21.20;100.00
23303;BME280;11820;48.738;9.092;2023-09-18T10:11:52;95798.22;;;20.89;100.00
23303;BME280;11820;48.738;9.092;2023-09-18T10:14:31;95817.69;;;20.88;100.00
23303;BME280;11820;48.738;9.092;2023-09-18T10:17:14;95824.00;;;20.77;100.00
23303;BME280;11820;48.738;9.092;2023-09-18T10:19:53;95876.34;;;20.59;100.00
23303;BME280;11820;48.738;9.092;2023-09-18T10:22:38;95863.47;;;20.42;100.00
23303;BME280;11820;48.738;9.092;2023-09-18T10:25:14;95862.41;;;20.53;100.00
23303;BME280;11820;48.738;9.092;2023-09-18T10:27:45;95866.38;;;20.51;100.00
23303;BME280;11820;48.738;9.092;2023-09-18T10:30:12;95872.94;;;20.23;100.00
23303;BME280;11820;48.738;9.092;2023-09-18T10:32:40;95874.50;;;20.44;100.00
23303;BME280;11820;48.738;9.092;2023-09-18T10:35:06;95869.00;;;20.31;100.00
23303;BME280;11820;48.738;9.092;2023-09-18T10:37:33;95881.63;;;20.29;100.00
23303;BME280;11820;48.738;9.092;2023-09-18T10:40:00;95869.53;;;20.23;100.00
23303;BME280;11820;48.738;9.092;2023-09-18T10:42:26;95873.97;;;20.27;100.00
23303;BME280;11820;48.738;9.092;2023-09-18T10:44:52;95860.06;;;20.27;100.00
23303;BME280;11820;48.738;9.092;2023-09-18T10:47:18;95868.72;;;20.27;100.00
23303;BME280;11820;48.738;9.092;2023-09-18T10:49:45;95843.25;;;20.08;100.00
23303;BME280;11820;48.738;9.092;2023-09-18T10:52:11;95836.97;;;20.14;100.00
23303;BME280;11820;48.738;9.092;2023-09-18T10:54:38;95833.53;;;20.38;100.00
23303;BME280;11820;48.738;9.092;2023-09-18T10:57:04;95834.09;;;20.05;100.00
23303;BME280;11820;48.738;9.092;2023-09-18T10:59:30;95827.75;;;20.01;100.00
23303;BME280;11820;48.738;9.092;2023-09-18T11:01:56;95829.88;;;20.24;100.00
23303;BME280;11820;48.738;9.092;2023-09-18T11:04:28;95823.28;;;20.32;100.00
23303;BME280;11820;48.738;9.092;2023-09-18T11:09:30;95831.97;;;20.17;100.00
23303;BME280;11820;48.738;9.092;2023-09-18T11:14:57;95846.44;;;20.20;100.00
23303;BME280;11820;48.738;9.092;2023-09-18T11:17:39;95855.09;;;20.35;100.00
23303;BME280;11820;48.738;9.092;2023-09-18T11:20:24;95843.25;;;20.48;100.00
23303;BME280;11820;48.738;9.092;2023-09-18T11:22:58;95830.38;;;20.46;100.00
23303;BME280;11820;48.738;9.092;2023-09-18T11:25:40;95808.28;;;20.52;100.00
23303;BME280;11820;48.738;9.092;2023-09-18T11:28:07;95814.59;;;20.51;100.00
23303;BME280;11820;48.738;9.092;2023-09-18T11:30:36;95833.28;;;20.45;100.00
23303;BME280;11820;48.738;9.092;2023-09-18T11:33:03;95834.59;;;20.42;100.00
23303;BME280;11820;48.738;9.092;2023-09-18T11:35:29;95851.91;;;20.53;100.00
23303;BME280;11820;48.738;9.092;2023-09-18T11:38:08;95876.09;;;20.55;100.00
23303;BME280;11820;48.738;9.092;2023-09-18T11:40:36;95860.06;;;20.52;100.00
23303;BME280;11820;48.738;9.092;2023-09-18T11:43:26;95848.75;;;20.61;100.00
23303;BME280;11820;48.738;9.092;2023-09-18T11:45:53;95850.84;;;20.69;100.00
23303;BME280;11820;48.738;9.092;2023-09-18T11:48:19;95861.34;;;20.69;100.00
23303;BME280;11820;48.738;9.092;2023-09-18T11:50:47;95852.41;;;20.70;100.00
23303;BME280;11820;48.738;9.092;2023-09-18T11:53:16;95860.84;;;20.62;100.00
23303;BME280;11820;48.738;9.092;2023-09-18T11:55:43;95856.94;;;20.45;100.00
23303;BME280;11820;48.738;9.092;2023-09-18T11:58:08;95855.59;;;20.57;100.00
23303;BME280;11820;48.738;9.092;2023-09-18T12:00:35;95866.59;;;20.54;100.00
23303;BME280;11820;48.738;9.092;2023-09-18T12:03:22;95876.88;;;20.56;100.00
23303;BME280;11820;48.738;9.092;2023-09-18T12:05:57;95878.44;;;20.57;100.00
23303;BME280;11820;48.738;9.092;2023-09-18T12:08:24;95867.97;;;20.47;100.00
23303;BME280;11820;48.738;9.092;2023-09-18T12:10:54;95859.25;;;20.66;100.00
23303;BME280;11820;48.738;9.092;2023-09-18T12:13:19;95830.06;;;20.73;100.00
23303;BME280;11820;48.738;9.092;2023-09-18T12:15:46;95829.78;;;20.74;100.00
23303;BME280;11820;48.738;9.092;2023-09-18T12:18:11;95841.38;;;20.68;100.00
23303;BME280;11820;48.738;9.092;2023-09-18T12:20:47;95837.72;;;20.59;100.00
23303;BME280;11820;48.738;9.092;2023-09-18T12:23:13;95837.97;;;20.68;100.00
23303;BME280;11820;48.738;9.092;2023-09-18T12:25:39;95820.06;;;20.85;100.00
23303;BME280;11820;48.738;9.092;2023-09-18T12:28:06;95821.91;;;20.84;100.00
23303;BME280;11820;48.738;9.092;2023-09-18T12:30:33;95814.53;;;20.91;100.00
23303;BME280;11820;48.738;9.092;2023-09-18T12:32:59;95814.28;;;20.78;100.00
23303;BME280;11820;48.738;9.092;2023-09-18T12:35:29;95813.81;;;21.29;100.00
23303;BME280;11820;48.738;9.092;2023-09-18T12:37:59;95812.00;;;21.30;100.00
23303;BME280;11820;48.738;9.092;2023-09-18T12:40:27;95813.66;;;22.02;100.00
23303;BME280;11820;48.738;9.092;2023-09-18T12:42:55;95818.69;;;23.91;100.00
23303;BME280;11820;48.738;9.092;2023-09-18T12:45:21;95835.78;;;24.44;100.00
23303;BME280;11820;48.738;9.092;2023-09-18T12:47:47;95830.44;;;23.20;100.00
23303;BME280;11820;48.738;9.092;2023-09-18T12:50:13;95826.91;;;23.48;100.00
23303;BME280;11820;48.738;9.092;2023-09-18T12:52:39;95820.50;;;24.41;100.00
23303;BME280;11820;48.738;9.092;2023-09-18T12:55:04;95829.94;;;23.78;100.00